createdAt,value
2018-04-25T00:00:37.876Z,7.27
2018-04-25T00:03:04.122Z,7.00
2018-04-25T00:05:30.363Z,6.67
2018-04-25T00:07:56.598Z,6.30
2018-04-25T00:10:22.886Z,6.20
2018-04-25T00:12:49.378Z,6.53
2018-04-25T00:15:15.694Z,6.03
2018-04-25T00:17:42.005Z,5.63
2018-04-25T00:20:08.253Z,6.10
2018-04-25T00:22:34.515Z,5.70
2018-04-25T00:25:01.514Z,5.97
2018-04-25T00:27:27.732Z,5.23
2018-04-25T00:29:54.062Z,5.50
2018-04-25T00:32:20.364Z,5.17
2018-04-25T00:34:46.622Z,5.37
2018-04-25T00:37:12.832Z,5.40
2018-04-25T00:39:39.100Z,4.77
2018-04-25T00:42:05.393Z,4.90
2018-04-25T00:44:31.721Z,5.60
2018-04-25T00:46:57.904Z,5.20
2018-04-25T00:49:25.113Z,4.93
2018-04-25T00:51:51.606Z,5.03
2018-04-25T00:54:18.652Z,5.07
2018-04-25T00:56:45.632Z,5.00
2018-04-25T00:59:11.964Z,4.70
2018-04-25T01:01:38.299Z,4.97
2018-04-25T01:04:04.544Z,4.90
2018-04-25T01:06:30.833Z,4.80
2018-04-25T01:08:57.872Z,4.90
2018-04-25T01:11:24.507Z,4.77
2018-04-25T01:13:50.794Z,5.00
2018-04-25T01:16:17.045Z,4.67
2018-04-25T01:18:43.312Z,4.40
2018-04-25T01:21:09.539Z,4.83
2018-04-25T01:23:36.049Z,4.77
2018-04-25T01:26:06.140Z,4.67
2018-04-25T01:31:47.979Z,4.47
2018-04-25T01:34:17.920Z,4.10
2018-04-25T01:36:45.937Z,4.50
2018-04-25T01:39:12.204Z,4.13
2018-04-25T01:41:39.252Z,4.17
2018-04-25T01:44:22.034Z,4.40
2018-04-25T01:47:12.348Z,4.47
2018-04-25T01:49:38.580Z,4.27
2018-04-25T01:52:17.214Z,4.30
2018-04-25T01:54:56.400Z,4.93
2018-04-25T01:57:34.950Z,5.10
2018-04-25T02:00:13.546Z,4.93
2018-04-25T02:02:39.676Z,4.70
2018-04-25T02:05:05.948Z,5.13
2018-04-25T02:07:32.177Z,5.17
2018-04-25T02:09:58.384Z,5.10
2018-04-25T02:12:24.616Z,5.67
2018-04-25T02:14:50.902Z,5.13
2018-04-25T02:17:17.116Z,5.83
2018-04-25T02:19:43.352Z,4.97
2018-04-25T02:22:09.696Z,5.83
2018-04-25T02:24:36.830Z,5.77
2018-04-25T02:27:03.082Z,6.00
2018-04-25T02:29:30.079Z,6.33
2018-04-25T02:31:56.345Z,5.83
2018-04-25T02:34:22.577Z,6.73
2018-04-25T02:36:48.801Z,7.40
2018-04-25T02:39:15.200Z,7.27
2018-04-25T02:41:41.479Z,7.67
2018-04-25T02:44:08.493Z,7.37
2018-04-25T02:46:34.734Z,8.03
2018-04-25T02:49:00.943Z,7.90
2018-04-25T02:51:27.972Z,8.10
2018-04-25T02:53:54.256Z,8.10
2018-04-25T02:56:21.236Z,8.17
2018-04-25T02:58:48.265Z,9.00
2018-04-25T03:01:14.654Z,8.50
2018-04-25T03:03:40.941Z,8.63
2018-04-25T03:06:07.158Z,8.60
2018-04-25T03:08:33.372Z,8.70
2018-04-25T03:10:59.581Z,9.20
2018-04-25T03:13:26.553Z,8.80
2018-04-25T03:15:52.821Z,9.43
2018-04-25T03:18:19.089Z,8.53
2018-04-25T03:20:46.264Z,8.90
2018-04-25T03:23:12.503Z,8.70
2018-04-25T03:25:38.712Z,8.93
2018-04-25T03:28:05.023Z,8.90
2018-04-25T03:30:32.034Z,9.10
2018-04-25T03:32:58.285Z,9.40
2018-04-25T03:35:24.548Z,9.10
2018-04-25T03:37:50.828Z,10.23
2018-04-25T03:40:17.040Z,10.00
2018-04-25T03:42:44.089Z,9.40
2018-04-25T03:45:10.304Z,9.70
2018-04-25T03:47:36.632Z,9.30
2018-04-25T03:50:02.903Z,9.57
2018-04-25T03:52:29.161Z,9.90
2018-04-25T03:54:55.467Z,10.07
2018-04-25T03:57:21.800Z,10.10
2018-04-25T03:59:48.914Z,10.10
2018-04-25T04:02:15.131Z,10.10
2018-04-25T04:04:41.475Z,10.73
2018-04-25T04:07:07.741Z,9.90
2018-04-25T04:09:34.722Z,9.50
2018-04-25T04:12:00.981Z,9.20
2018-04-25T04:14:27.286Z,8.50
2018-04-25T04:16:53.506Z,8.63
2018-04-25T04:19:20.016Z,8.67
2018-04-25T04:21:47.060Z,7.87
2018-04-25T04:24:14.060Z,8.07
2018-04-25T04:26:40.293Z,8.43
2018-04-25T04:29:06.531Z,7.80
2018-04-25T04:31:32.806Z,7.60
2018-04-25T04:33:59.468Z,7.63
2018-04-25T04:36:25.679Z,7.20
2018-04-25T04:38:52.016Z,6.17
2018-04-25T04:41:18.292Z,5.67
2018-04-25T04:43:44.568Z,4.83
2018-04-25T04:46:10.781Z,4.57
2018-04-25T04:48:37.028Z,5.00
2018-04-25T04:51:03.359Z,4.90
2018-04-25T04:53:29.616Z,4.87
2018-04-25T04:55:56.597Z,4.83
2018-04-25T04:58:23.532Z,4.67
2018-04-25T05:00:50.476Z,4.97
2018-04-25T05:03:17.464Z,4.23
2018-04-25T05:05:44.448Z,3.83
2018-04-25T05:08:10.679Z,4.10
2018-04-25T05:10:36.935Z,3.50
2018-04-25T05:13:03.302Z,3.83
2018-04-25T05:15:29.526Z,4.20
2018-04-25T05:17:55.791Z,4.53
2018-04-25T05:20:22.002Z,4.57
2018-04-25T05:22:48.255Z,5.10
2018-04-25T05:25:15.246Z,5.83
2018-04-25T05:27:41.570Z,6.40
2018-04-25T05:30:07.840Z,6.93
2018-04-25T08:04:04.291Z,5.18
2018-04-25T08:06:30.652Z,4.13
2018-04-25T08:08:56.870Z,4.37
2018-04-25T08:11:23.073Z,4.37
2018-04-25T08:14:02.406Z,4.17
2018-04-25T08:16:40.889Z,4.45
2018-04-25T08:19:19.413Z,4.00
2018-04-25T08:21:45.675Z,3.93
2018-04-25T08:24:12.052Z,3.73
2018-04-25T09:15:27.234Z,4.78
2018-04-25T09:17:53.454Z,4.80
2018-04-25T09:20:19.780Z,5.40
2018-04-25T09:22:46.163Z,5.10
2018-04-25T09:25:12.552Z,5.60
2018-04-25T09:27:38.848Z,4.57
2018-04-25T09:30:05.133Z,4.80
2018-04-25T09:32:31.363Z,4.13
2018-04-25T09:34:57.663Z,4.00
2018-04-25T09:37:23.956Z,4.37
2018-04-25T09:39:50.340Z,3.93
2018-04-25T09:42:17.131Z,4.03
2018-04-25T09:44:43.387Z,3.40
2018-04-25T09:47:09.572Z,3.80
2018-04-25T09:49:36.640Z,3.77
2018-04-25T09:52:02.945Z,3.10
2018-04-25T09:54:29.937Z,3.30
2018-04-25T09:56:56.224Z,3.77
2018-04-25T09:59:22.524Z,3.77
2018-04-25T14:28:26.283Z,1.00
2018-04-25T14:28:30.669Z,1.50
2018-04-25T14:28:35.709Z,1.50
2018-04-25T14:28:39.916Z,1.57
2018-04-25T14:28:44.186Z,1.50
2018-04-25T14:28:49.160Z,1.50
2018-04-25T14:28:53.486Z,1.40
2018-04-25T14:28:58.432Z,1.55
2018-04-25T14:29:03.484Z,1.60
2018-04-25T14:29:07.770Z,1.60
2018-04-25T14:29:12.749Z,1.60
2018-04-25T14:29:17.741Z,1.60
2018-04-25T14:29:22.896Z,1.73
2018-04-25T14:29:27.082Z,1.73
2018-04-25T14:29:32.120Z,1.57
2018-04-25T14:29:36.419Z,1.50
2018-04-25T14:44:15.161Z,3.33
2018-04-25T14:46:41.545Z,3.53
2018-04-25T14:49:07.881Z,3.50
2018-04-25T14:51:34.193Z,4.07
2018-04-25T14:54:01.181Z,3.97
2018-04-25T14:56:27.462Z,4.30
2018-04-25T14:58:54.536Z,4.07
2018-04-25T15:01:20.768Z,4.80
2018-04-25T15:03:47.060Z,4.63
2018-04-25T15:06:14.100Z,4.43
2018-04-25T15:08:40.495Z,5.00
2018-04-25T15:11:06.974Z,4.70
2018-04-25T15:13:33.937Z,4.93
2018-04-25T15:16:00.964Z,4.70
2018-04-25T15:18:27.943Z,4.70
2018-04-25T15:20:54.922Z,4.70
2018-04-25T15:23:21.312Z,4.93
2018-04-25T15:25:47.609Z,4.67
2018-04-25T15:28:14.592Z,4.50
2018-04-25T15:30:40.828Z,4.37
2018-04-25T15:33:07.204Z,4.93
2018-04-25T15:35:33.422Z,4.90
2018-04-25T15:37:59.910Z,4.60
2018-04-25T15:40:28.206Z,3.73
2018-04-25T15:42:54.446Z,3.83
2018-04-25T15:45:21.721Z,3.20
2018-04-25T15:47:48.032Z,3.37
2018-04-25T15:50:15.166Z,3.23
2018-04-25T15:52:41.543Z,3.40
2018-04-25T15:55:08.551Z,3.00
2018-04-25T15:57:34.770Z,3.20
2018-04-25T16:00:01.093Z,3.30
2018-04-25T16:02:27.409Z,3.70
2018-04-25T16:04:54.672Z,3.37
2018-04-25T16:07:21.070Z,3.30
2018-04-25T16:09:48.975Z,5.07
2018-04-25T16:12:15.552Z,5.00
2018-04-25T16:14:41.789Z,5.20
2018-04-25T16:17:08.068Z,5.53
2018-04-25T16:19:34.291Z,6.17
2018-04-25T16:22:00.537Z,5.57
2018-04-25T16:24:27.024Z,5.40
2018-04-25T16:26:54.230Z,5.70
2018-04-25T16:29:20.503Z,5.27
2018-04-25T16:31:46.869Z,5.83
2018-04-25T16:34:13.093Z,5.50
2018-04-25T16:36:39.370Z,5.53
2018-04-25T16:39:05.682Z,6.00
2018-04-25T16:41:32.069Z,5.53
2018-04-25T16:43:58.496Z,5.57
2018-04-25T16:46:24.947Z,5.70
2018-04-25T16:48:51.283Z,5.60
2018-04-25T16:51:17.628Z,6.40
2018-04-25T16:53:43.915Z,6.10
2018-04-25T16:56:10.190Z,5.97
2018-04-25T16:58:36.443Z,5.70
2018-04-25T17:01:04.048Z,6.43
2018-04-25T17:03:31.431Z,6.20
2018-04-25T17:05:57.742Z,5.90
2018-04-25T17:08:24.109Z,6.20
2018-04-25T17:10:50.491Z,6.90
2018-04-25T17:13:16.751Z,6.57
2018-04-25T17:15:43.024Z,6.87
2018-04-25T17:18:09.346Z,6.40
2018-04-25T17:20:35.720Z,6.20
2018-04-25T17:23:03.788Z,5.63
2018-04-25T17:25:30.977Z,6.63
2018-04-25T17:27:57.301Z,6.23
2018-04-25T17:30:23.603Z,5.90
2018-04-25T17:32:49.904Z,5.93
2018-04-25T17:35:16.169Z,6.00
2018-04-25T17:37:43.766Z,5.30
2018-04-25T17:40:10.899Z,5.50
2018-04-25T17:42:38.421Z,5.53
2018-04-25T17:45:04.915Z,5.67
2018-04-25T17:47:32.115Z,5.03
2018-04-25T17:49:58.394Z,5.53
2018-04-25T17:52:25.365Z,5.00
2018-04-25T17:54:51.704Z,5.03
2018-04-25T17:57:17.951Z,4.90
2018-04-25T17:59:44.276Z,5.40
2018-04-25T18:02:10.700Z,5.20
2018-04-25T18:04:38.254Z,5.33
2018-04-25T18:07:04.715Z,4.57
2018-04-25T18:09:31.011Z,5.13
2018-04-25T18:11:57.268Z,4.97
2018-04-25T18:14:23.556Z,4.87
2018-04-25T18:16:49.963Z,5.13
2018-04-25T18:19:16.206Z,5.40
2018-04-25T18:21:43.352Z,4.63
2018-04-25T18:24:10.322Z,5.37
2018-04-25T18:26:36.715Z,5.53
2018-04-25T18:29:04.763Z,5.80
2018-04-25T18:31:31.036Z,5.17
2018-04-25T18:33:58.045Z,5.70
2018-04-25T18:36:24.463Z,6.00
2018-04-25T18:38:50.900Z,6.33
2018-04-25T18:41:17.233Z,5.70
2018-04-25T18:43:43.577Z,5.73
2018-04-25T18:46:10.644Z,5.47
2018-04-25T18:48:37.616Z,6.03
2018-04-25T18:51:04.845Z,6.03
2018-04-25T18:53:31.861Z,6.50
2018-04-25T18:55:58.129Z,6.07
2018-04-25T18:58:25.241Z,5.97
2018-04-25T19:00:51.596Z,5.73
2018-04-25T19:03:17.918Z,5.80
2018-04-25T19:05:45.051Z,6.37
2018-04-25T19:08:11.316Z,6.17
2018-04-25T19:10:38.306Z,5.93
2018-04-25T19:13:04.569Z,5.80
2018-04-25T19:15:31.544Z,5.70
2018-04-25T19:17:57.891Z,5.60
2018-04-25T19:20:24.226Z,5.17
2018-04-25T19:22:51.259Z,5.53
2018-04-25T19:25:17.763Z,4.97
2018-04-25T19:27:44.873Z,5.00
2018-04-25T19:30:11.135Z,4.90
2018-04-25T19:32:38.211Z,4.80
2018-04-25T19:35:04.484Z,5.10
2018-04-25T19:37:30.840Z,5.27
2018-04-25T19:39:57.853Z,5.10
2018-04-25T19:42:24.213Z,4.90
2018-04-25T19:44:51.243Z,4.90
2018-04-25T19:47:17.472Z,4.90
2018-04-25T19:49:44.482Z,5.23
2018-04-25T19:52:10.758Z,4.80
2018-04-25T19:54:37.087Z,5.00
2018-04-25T19:57:03.394Z,5.33
2018-04-25T19:59:29.678Z,4.60
2018-04-25T20:01:56.082Z,4.47
2018-04-25T20:04:22.446Z,4.47
2018-04-25T20:06:48.812Z,4.60
2018-04-25T20:09:15.100Z,4.37
2018-04-25T20:11:41.363Z,4.63
2018-04-25T20:14:07.646Z,4.40
2018-04-25T20:16:38.218Z,4.40
2018-04-25T20:19:05.103Z,3.90
2018-04-25T20:21:31.867Z,4.67
2018-04-25T20:23:59.240Z,4.30
2018-04-25T20:26:26.404Z,4.40
2018-04-25T20:28:52.647Z,4.37
2018-04-25T20:31:19.394Z,4.50
2018-04-25T20:33:45.655Z,4.27
2018-04-25T20:36:12.705Z,4.37
2018-04-25T20:38:39.360Z,4.37
2018-04-25T20:41:05.922Z,4.07
2018-04-25T20:43:32.353Z,4.60
2018-04-25T20:45:59.168Z,4.27
2018-04-25T20:48:25.548Z,4.67
2018-04-25T20:50:52.929Z,4.50
2018-04-25T20:53:19.414Z,4.70
2018-04-25T20:55:45.692Z,4.20
2018-04-25T20:58:12.204Z,4.57
2018-04-25T21:00:39.041Z,4.17
2018-04-25T21:03:06.205Z,4.97
2018-04-25T21:05:33.214Z,6.23
2018-04-25T21:07:59.622Z,5.70
2018-04-25T21:10:25.865Z,13.57
2018-04-25T21:12:52.137Z,4.60
2018-04-25T21:15:18.480Z,6.90
2018-04-25T21:17:44.885Z,4.13
2018-04-25T21:20:11.188Z,4.80
2018-04-25T21:22:37.528Z,4.70
2018-04-25T21:25:04.986Z,4.43
2018-04-25T21:27:31.244Z,4.93
2018-04-25T21:29:59.177Z,5.03
2018-04-25T21:32:25.564Z,4.83
2018-04-25T21:34:51.969Z,4.37
2018-04-25T21:37:18.319Z,4.00
2018-04-25T21:39:44.831Z,3.50
2018-04-25T21:42:11.336Z,3.20
2018-04-25T21:44:38.464Z,3.40
2018-04-25T21:47:04.712Z,3.37
2018-04-25T21:49:30.936Z,2.43
2018-04-25T21:51:57.189Z,2.93
2018-04-25T21:54:23.498Z,2.67
2018-04-25T21:56:49.887Z,2.90
2018-04-25T21:59:16.257Z,2.60
2018-04-25T22:01:42.763Z,2.37
2018-04-25T22:04:09.390Z,2.33
2018-04-25T22:06:36.884Z,2.40
2018-04-25T22:09:03.836Z,2.50
2018-04-25T22:11:30.579Z,2.30
2018-04-25T22:14:00.437Z,2.20
2018-04-25T22:16:37.029Z,2.07
2018-04-25T22:19:07.174Z,1.90
2018-04-25T22:21:35.565Z,2.17
2018-04-25T22:24:02.429Z,2.50
2018-04-25T22:26:35.315Z,2.03
2018-04-25T22:29:05.948Z,2.03
2018-04-25T22:31:35.107Z,2.50
2018-04-25T22:34:01.338Z,2.40
2018-04-25T22:36:27.647Z,2.30
2018-04-25T22:38:54.000Z,1.90
2018-04-25T22:41:20.331Z,2.30
2018-04-25T22:43:47.376Z,2.30
2018-04-25T22:46:13.623Z,2.47
2018-04-25T22:48:39.893Z,2.50
2018-04-25T22:51:06.896Z,2.47
2018-04-25T22:53:33.161Z,2.23
2018-04-25T22:56:00.096Z,2.63
2018-04-25T22:58:27.275Z,2.30
2018-04-25T23:00:54.301Z,2.40
2018-04-25T23:03:21.120Z,2.10
2018-04-25T23:05:47.288Z,2.07
2018-04-25T23:08:13.552Z,2.60
2018-04-25T23:10:39.761Z,2.63
2018-04-25T23:13:08.463Z,2.20
2018-04-25T23:15:41.181Z,2.80
2018-04-25T23:18:17.110Z,2.40
2018-04-25T23:20:47.101Z,2.67
2018-04-25T23:23:16.603Z,2.50
2018-04-25T23:28:19.668Z,2.60
2018-04-25T23:30:49.053Z,2.80
2018-04-25T23:33:17.441Z,2.57
2018-04-25T23:35:47.078Z,2.83
2018-04-25T23:38:17.849Z,2.20
2018-04-25T23:40:49.526Z,2.70
2018-04-25T23:43:17.812Z,2.47
2018-04-25T23:45:44.499Z,2.50
2018-04-25T23:48:19.256Z,2.63
2018-04-25T23:50:51.477Z,2.10
2018-04-25T23:53:23.427Z,2.57
2018-04-25T23:55:56.830Z,2.30
2018-04-25T23:58:26.340Z,2.40
